createdAt,value
2023-04-18T00:02:10.607Z,13.20
2023-04-18T00:04:38.807Z,12.47
2023-04-18T00:07:06.940Z,12.63
2023-04-18T00:09:35.155Z,12.87
2023-04-18T00:12:04.910Z,14.60
2023-04-18T00:14:34.137Z,13.43
2023-04-18T00:17:02.865Z,11.50
2023-04-18T00:19:31.332Z,12.73
2023-04-18T00:21:59.847Z,13.63
2023-04-18T00:24:27.868Z,14.17
2023-04-18T00:26:57.069Z,14.40
2023-04-18T00:29:26.482Z,11.80
2023-04-18T00:31:54.631Z,14.23
2023-04-18T00:34:24.141Z,16.37
2023-04-18T00:36:54.814Z,13.07
2023-04-18T00:39:23.035Z,14.40
2023-04-18T00:41:50.993Z,14.67
2023-04-18T00:44:19.173Z,14.33
2023-04-18T00:46:48.542Z,17.07
2023-04-18T00:49:16.915Z,12.43
2023-04-18T00:51:45.591Z,15.00
2023-04-18T00:54:14.138Z,13.27
2023-04-18T00:56:42.529Z,13.77
2023-04-18T00:59:14.675Z,15.67
2023-04-18T01:01:43.574Z,11.73
2023-04-18T01:04:13.306Z,14.07
2023-04-18T01:06:43.998Z,15.77
2023-04-18T01:09:16.023Z,12.03
2023-04-18T01:11:46.090Z,12.60
2023-04-18T01:14:14.657Z,15.50
2023-04-18T01:16:44.019Z,13.27
2023-04-18T01:19:19.137Z,13.67
2023-04-18T01:21:47.425Z,14.83
2023-04-18T01:24:18.402Z,12.90
2023-04-18T01:26:48.451Z,14.30
2023-04-18T01:29:16.686Z,15.83
2023-04-18T01:31:44.815Z,16.93
2023-04-18T01:34:17.754Z,14.27
2023-04-18T01:36:46.687Z,14.43
2023-04-18T01:39:18.300Z,13.30
2023-04-18T01:41:46.892Z,14.17
2023-04-18T01:44:15.046Z,12.73
2023-04-18T01:46:43.231Z,14.83
2023-04-18T01:49:11.300Z,16.10
2023-04-18T01:51:39.832Z,12.70
2023-04-18T01:54:07.844Z,13.63
2023-04-18T01:56:37.204Z,14.37
2023-04-18T01:59:05.269Z,15.30
2023-04-18T02:01:33.320Z,15.33
2023-04-18T02:04:01.436Z,15.80
2023-04-18T02:06:29.641Z,13.33
2023-04-18T02:08:57.630Z,13.27
2023-04-18T02:11:26.465Z,12.90
2023-04-18T02:13:55.834Z,17.00
2023-04-18T02:16:23.897Z,15.60
2023-04-18T02:18:52.845Z,15.80
2023-04-18T02:21:21.858Z,14.40
2023-04-18T02:23:50.980Z,13.37
2023-04-18T02:26:19.096Z,13.90
2023-04-18T02:28:47.271Z,16.53
2023-04-18T02:31:16.859Z,14.70
2023-04-18T02:33:46.886Z,15.33
2023-04-18T02:36:15.126Z,14.73
2023-04-18T02:38:44.849Z,16.63
2023-04-18T02:41:15.335Z,12.93
2023-04-18T02:43:43.620Z,13.50
2023-04-18T02:46:11.885Z,14.53
2023-04-18T02:48:41.886Z,12.07
2023-04-18T02:51:11.462Z,13.00
2023-04-18T02:53:40.271Z,13.67
2023-04-18T02:56:09.005Z,12.17
2023-04-18T02:58:57.043Z,13.00
2023-04-18T03:01:40.999Z,15.87
2023-04-18T03:04:14.008Z,12.97
2023-04-18T03:06:53.265Z,15.37
2023-04-18T03:09:21.353Z,11.97
2023-04-18T03:11:55.702Z,13.17
2023-04-18T03:14:27.422Z,10.20
2023-04-18T03:16:57.010Z,13.90
2023-04-18T03:19:31.841Z,12.93
2023-04-18T03:22:07.325Z,12.67
2023-04-18T03:24:38.214Z,11.30
2023-04-18T03:27:08.180Z,12.67
2023-04-18T03:29:38.658Z,13.87
2023-04-18T03:32:07.007Z,10.30
2023-04-18T03:34:36.381Z,11.83
2023-04-18T03:37:07.405Z,12.97
2023-04-18T03:39:40.974Z,12.07
2023-04-18T03:42:09.412Z,13.50
2023-04-18T03:44:37.690Z,17.07
2023-04-18T03:47:05.898Z,19.57
2023-04-18T03:49:38.978Z,15.03
2023-04-18T03:52:07.140Z,13.83
2023-04-18T03:54:35.294Z,12.13
2023-04-18T03:57:05.263Z,19.57
2023-04-18T03:59:36.503Z,16.53
2023-04-18T04:02:04.828Z,14.47
2023-04-18T04:04:33.193Z,18.03
2023-04-18T04:07:02.738Z,13.33
2023-04-18T04:09:30.996Z,12.67
2023-04-18T04:11:59.062Z,14.03
2023-04-18T04:14:28.794Z,12.83
2023-04-18T04:16:56.920Z,18.57
2023-04-18T04:19:25.254Z,18.33
2023-04-18T04:22:04.872Z,14.33
2023-04-18T04:24:33.860Z,15.17
2023-04-18T04:27:03.685Z,13.63
2023-04-18T04:29:57.486Z,15.87
2023-04-18T04:32:27.485Z,14.27
2023-04-18T04:34:56.265Z,15.57
2023-04-18T04:37:26.062Z,14.20
2023-04-18T04:40:09.405Z,14.57
2023-04-18T04:42:53.904Z,13.87
2023-04-18T04:45:27.988Z,14.37
2023-04-18T04:47:56.875Z,17.10
2023-04-18T04:50:25.574Z,14.07
2023-04-18T04:52:55.028Z,14.80
2023-04-18T04:55:23.142Z,14.93
2023-04-18T04:57:51.695Z,17.03
2023-04-18T05:00:33.762Z,15.67
2023-04-18T05:03:02.265Z,16.43
2023-04-18T05:05:31.136Z,15.87
2023-04-18T05:08:00.551Z,14.80
2023-04-18T05:10:28.980Z,13.93
2023-04-18T05:12:57.354Z,12.67
2023-04-18T05:15:25.657Z,18.07
2023-04-18T05:17:53.889Z,15.57
2023-04-18T05:20:22.286Z,14.37
2023-04-18T05:22:50.485Z,13.33
2023-04-18T05:25:20.033Z,12.87
2023-04-18T05:27:48.062Z,14.57
2023-04-18T05:30:16.272Z,17.20
2023-04-18T05:32:44.620Z,13.00
2023-04-18T05:35:12.788Z,15.50
2023-04-18T05:37:40.881Z,13.47
2023-04-18T05:40:10.738Z,13.80
2023-04-18T05:42:40.351Z,14.43
2023-04-18T05:45:09.883Z,15.40
2023-04-18T05:47:37.932Z,14.57
2023-04-18T05:50:07.728Z,15.03
2023-04-18T05:52:35.869Z,15.47
2023-04-18T05:55:04.100Z,13.90
2023-04-18T05:57:32.439Z,14.70
2023-04-18T06:00:01.986Z,12.93
2023-04-18T06:02:40.915Z,15.10
2023-04-18T06:05:10.730Z,14.43
2023-04-18T06:07:39.102Z,11.50
2023-04-18T06:10:11.120Z,19.53
2023-04-18T06:12:39.239Z,12.33
2023-04-18T06:15:11.108Z,17.17
2023-04-18T06:17:39.445Z,11.70
2023-04-18T06:20:08.928Z,14.07
2023-04-18T06:22:37.049Z,15.30
2023-04-18T06:25:05.905Z,14.10
2023-04-18T06:27:33.985Z,13.80
2023-04-18T06:30:02.102Z,16.63
2023-04-18T06:32:31.604Z,13.10
2023-04-18T06:34:59.777Z,15.23
2023-04-18T06:37:28.005Z,17.17
2023-04-18T06:39:56.116Z,13.90
2023-04-18T06:42:24.227Z,12.70
2023-04-18T06:44:52.347Z,13.20
2023-04-18T06:47:20.424Z,17.13
2023-04-18T06:49:49.909Z,13.37
2023-04-18T06:52:18.067Z,17.33
2023-04-18T06:54:46.249Z,13.30
2023-04-18T06:57:14.330Z,12.03
2023-04-18T06:59:42.514Z,15.07
2023-04-18T07:02:10.742Z,13.93
2023-04-18T07:04:39.224Z,12.57
2023-04-18T07:07:08.701Z,15.63
2023-04-18T07:09:36.839Z,14.17
2023-04-18T07:12:05.229Z,13.10
2023-04-18T07:14:34.317Z,16.13
2023-04-18T07:17:03.003Z,15.70
2023-04-18T07:19:31.217Z,13.97
2023-04-18T07:21:59.351Z,13.97
2023-04-18T07:24:28.756Z,13.83
2023-04-18T07:26:56.906Z,13.07
2023-04-18T07:29:25.201Z,14.73
2023-04-18T07:31:53.325Z,15.93
2023-04-18T07:34:22.247Z,14.80
2023-04-18T07:36:50.630Z,13.27
2023-04-18T07:39:18.849Z,14.67
2023-04-18T07:41:48.263Z,13.47
2023-04-18T07:44:16.518Z,13.10
2023-04-18T07:46:44.767Z,16.00
2023-04-18T07:49:13.167Z,12.23
2023-04-18T07:51:41.548Z,13.13
2023-04-18T07:54:11.034Z,13.67
2023-04-18T07:56:39.311Z,13.00
2023-04-18T07:59:08.724Z,18.53
2023-04-18T08:01:38.100Z,17.50
2023-04-18T08:04:06.813Z,13.40
2023-04-18T08:06:35.653Z,13.77
2023-04-18T08:09:05.866Z,15.47
2023-04-18T08:11:34.996Z,20.10
2023-04-18T08:14:03.421Z,13.77
2023-04-18T08:16:33.200Z,14.60
2023-04-18T08:19:01.309Z,15.13
2023-04-18T08:21:29.596Z,13.27
2023-04-18T08:23:57.742Z,16.33
2023-04-18T08:26:26.036Z,15.17
2023-04-18T08:28:54.159Z,13.83
2023-04-18T08:31:22.368Z,13.10
2023-04-18T08:33:51.838Z,14.60
2023-04-18T08:36:20.045Z,14.80
2023-04-18T08:38:48.197Z,14.77
2023-04-18T08:41:21.836Z,18.90
2023-04-18T08:43:50.072Z,15.70
2023-04-18T08:46:19.076Z,15.33
2023-04-18T08:48:52.536Z,13.20
2023-04-18T08:51:21.539Z,16.37
2023-04-18T08:53:50.658Z,13.83
2023-04-18T08:56:22.372Z,14.03
2023-04-18T08:58:50.777Z,12.87
2023-04-18T09:01:18.937Z,14.87
2023-04-18T09:03:47.662Z,15.50
2023-04-18T09:06:18.964Z,17.20
2023-04-18T09:08:59.036Z,17.97
2023-04-18T09:11:31.972Z,13.20
2023-04-18T09:14:00.323Z,14.57
2023-04-18T09:16:29.339Z,13.80
2023-04-18T09:19:13.141Z,16.40
2023-04-18T09:21:46.233Z,15.53
2023-04-18T09:24:24.892Z,15.10
2023-04-18T09:26:55.838Z,14.40
2023-04-18T09:29:42.185Z,14.53
2023-04-18T09:32:12.908Z,16.43
2023-04-18T09:34:43.421Z,17.00
2023-04-18T09:37:14.864Z,15.43
2023-04-18T09:39:45.260Z,13.93
2023-04-18T09:42:13.848Z,19.37
2023-04-18T09:45:04.741Z,14.20
2023-04-18T09:47:35.030Z,17.40
2023-04-18T09:50:04.537Z,14.73
2023-04-18T09:52:36.897Z,15.20
2023-04-18T09:55:09.176Z,17.00
2023-04-18T09:57:40.630Z,16.47
2023-04-18T10:00:17.241Z,18.00
2023-04-18T10:02:59.265Z,19.23
2023-04-18T10:05:31.792Z,15.07
2023-04-18T10:08:01.516Z,15.27
2023-04-18T10:10:30.303Z,15.10
2023-04-18T10:13:00.670Z,14.70
2023-04-18T10:15:31.953Z,14.33
2023-04-18T10:18:05.684Z,15.40
2023-04-18T10:20:35.774Z,15.03
2023-04-18T10:23:37.510Z,15.53
2023-04-18T10:26:06.289Z,16.40
2023-04-18T10:28:56.677Z,15.93
2023-04-18T10:31:27.015Z,15.57
2023-04-18T10:34:05.689Z,14.80
2023-04-18T10:36:34.681Z,15.83
2023-04-18T10:39:23.115Z,14.50
2023-04-18T10:41:52.358Z,14.43
2023-04-18T10:44:24.225Z,13.87
2023-04-18T10:47:32.229Z,11.87
2023-04-18T10:50:06.340Z,11.80
2023-04-18T10:52:35.812Z,12.70
2023-04-18T10:55:25.411Z,12.93
2023-04-18T10:57:56.317Z,10.87
2023-04-18T11:00:25.972Z,12.33
2023-04-18T11:02:57.669Z,10.70
2023-04-18T11:05:28.967Z,10.13
2023-04-18T11:07:57.219Z,12.60
2023-04-18T11:10:27.937Z,13.50
2023-04-18T11:12:56.612Z,12.07
2023-04-18T11:15:27.147Z,11.73
2023-04-18T11:17:59.299Z,9.77
2023-04-18T11:20:28.204Z,11.27
2023-04-18T11:22:58.422Z,10.90
2023-04-18T11:25:30.720Z,11.53
2023-04-18T11:28:01.160Z,13.30
2023-04-18T11:30:36.888Z,10.30
2023-04-18T11:33:08.353Z,26.33
2023-04-18T11:35:39.675Z,12.37
2023-04-18T11:38:08.334Z,11.30
2023-04-18T11:40:38.941Z,12.10
2023-04-18T11:43:08.503Z,13.00
2023-04-18T11:45:36.809Z,10.07
2023-04-18T11:48:06.111Z,9.90
2023-04-18T11:50:38.209Z,12.80
2023-04-18T11:53:06.413Z,12.77
2023-04-18T11:55:34.596Z,10.23
2023-04-18T11:58:04.336Z,9.83
2023-04-18T12:00:35.373Z,10.00
2023-04-18T12:03:05.973Z,10.53
2023-04-18T12:05:36.117Z,9.90
2023-04-18T12:08:09.977Z,11.33
2023-04-18T12:10:39.487Z,13.47
2023-04-18T12:13:09.728Z,8.60
2023-04-18T12:15:41.578Z,11.37
2023-04-18T12:18:10.288Z,11.67
2023-04-18T12:20:46.628Z,11.57
2023-04-18T12:23:31.758Z,11.30
2023-04-18T12:26:01.608Z,11.70
2023-04-18T12:28:31.579Z,11.90
2023-04-18T12:31:00.222Z,12.93
2023-04-18T12:33:28.657Z,11.83
2023-04-18T12:35:57.365Z,12.10
2023-04-18T12:38:25.711Z,11.03
2023-04-18T12:40:54.128Z,11.77
2023-04-18T12:43:22.272Z,12.57
2023-04-18T12:45:51.886Z,11.00
2023-04-18T12:48:20.118Z,13.80
2023-04-18T12:50:48.230Z,12.47
2023-04-18T12:53:16.883Z,13.00
2023-04-18T12:55:45.023Z,11.87
2023-04-18T12:58:18.334Z,14.23
2023-04-18T13:00:46.659Z,14.73
2023-04-18T13:03:16.286Z,10.50
2023-04-18T13:05:44.609Z,12.23
2023-04-18T13:08:16.909Z,9.80
2023-04-18T13:10:46.183Z,9.13
2023-04-18T13:13:14.605Z,10.80
2023-04-18T13:15:42.759Z,9.70
2023-04-18T13:18:10.922Z,10.60
2023-04-18T13:20:40.649Z,10.13
2023-04-18T13:23:08.714Z,9.27
2023-04-18T13:25:36.787Z,9.37
2023-04-18T13:28:05.165Z,9.23
2023-04-18T13:30:35.573Z,10.80
2023-04-18T13:33:03.791Z,6.00
2023-04-18T13:35:32.055Z,7.37
2023-04-18T13:38:01.574Z,5.50
2023-04-18T13:40:29.752Z,5.33
2023-04-18T13:42:57.888Z,6.73
2023-04-18T13:45:26.101Z,6.67
2023-04-18T13:47:54.283Z,7.00
2023-04-18T13:50:23.102Z,6.53
2023-04-18T13:52:51.850Z,7.37
2023-04-18T13:55:22.958Z,5.83
2023-04-18T13:58:16.944Z,8.13
2023-04-18T14:00:44.994Z,7.40
2023-04-18T14:03:13.183Z,5.57
2023-04-18T14:05:41.299Z,5.20
2023-04-18T14:08:14.236Z,7.00
2023-04-18T14:10:43.686Z,4.23
2023-04-18T14:13:11.721Z,7.83
2023-04-18T14:15:45.121Z,7.03
2023-04-18T14:18:13.221Z,5.77
2023-04-18T14:20:41.565Z,6.00
2023-04-18T14:23:09.695Z,6.10
2023-04-18T14:25:37.932Z,4.87
2023-04-18T14:28:09.794Z,5.70
2023-04-18T14:30:39.036Z,4.77
2023-04-18T14:33:09.158Z,6.00
2023-04-18T14:35:37.512Z,6.00
2023-04-18T14:38:05.696Z,6.53
2023-04-18T14:40:34.183Z,4.37
2023-04-18T14:43:02.477Z,7.27
2023-04-18T14:45:33.831Z,5.73
2023-04-18T14:48:02.077Z,7.60
2023-04-18T14:50:30.315Z,5.60
2023-04-18T14:52:58.448Z,6.47
2023-04-18T14:55:27.289Z,8.87
2023-04-18T14:57:55.448Z,6.37
2023-04-18T15:00:23.648Z,6.43
2023-04-18T15:02:53.580Z,5.13
2023-04-18T15:05:24.437Z,4.73
2023-04-18T15:07:52.711Z,4.53
2023-04-18T15:10:22.416Z,4.90
2023-04-18T15:12:51.142Z,6.13
2023-04-18T15:15:20.810Z,5.50
2023-04-18T15:17:49.284Z,7.63
2023-04-18T15:20:18.785Z,5.43
2023-04-18T15:22:47.853Z,4.97
2023-04-18T15:25:17.102Z,5.90
2023-04-18T15:27:45.220Z,5.10
2023-04-18T15:30:14.417Z,7.20
2023-04-18T15:32:42.536Z,7.37
2023-04-18T15:35:11.314Z,6.23
2023-04-18T15:37:41.488Z,7.00
2023-04-18T15:40:16.034Z,6.73
2023-04-18T15:42:44.530Z,6.30
2023-04-18T15:45:13.206Z,5.40
2023-04-18T15:47:41.692Z,7.93
2023-04-18T15:50:11.022Z,5.70
2023-04-18T15:52:41.579Z,5.93
2023-04-18T15:55:12.184Z,5.43
2023-04-18T15:57:40.595Z,6.53
2023-04-18T16:00:15.857Z,6.13
2023-04-18T16:02:45.143Z,5.43
2023-04-18T16:05:13.847Z,6.47
2023-04-18T16:07:43.951Z,6.50
2023-04-18T16:10:12.875Z,5.83
2023-04-18T16:12:41.801Z,7.43
2023-04-18T16:15:11.747Z,8.30
2023-04-18T16:17:40.139Z,8.70
2023-04-18T16:20:09.517Z,7.57
2023-04-18T16:22:38.446Z,5.90
2023-04-18T16:25:10.205Z,9.27
2023-04-18T16:27:38.901Z,7.23
2023-04-18T16:30:09.967Z,7.67
2023-04-18T16:32:39.148Z,7.87
2023-04-18T16:35:10.159Z,8.73
2023-04-18T16:37:38.888Z,7.40
2023-04-18T16:40:10.152Z,7.70
2023-04-18T16:42:38.427Z,7.67
2023-04-18T16:45:07.675Z,7.60
2023-04-18T16:47:35.740Z,7.37
2023-04-18T16:50:03.919Z,8.57
2023-04-18T16:52:32.036Z,8.13
2023-04-18T16:55:00.127Z,9.00
2023-04-18T16:57:29.576Z,7.13
2023-04-18T16:59:58.207Z,7.80
2023-04-18T17:02:26.486Z,7.97
2023-04-18T17:04:54.703Z,6.47
2023-04-18T17:07:22.790Z,7.63
2023-04-18T17:09:50.989Z,7.50
2023-04-18T17:12:19.104Z,7.93
2023-04-18T17:14:48.629Z,6.77
2023-04-18T17:17:16.780Z,7.90
2023-04-18T17:19:45.942Z,7.87
2023-04-18T17:22:14.164Z,7.20
2023-04-18T17:24:42.243Z,7.93
2023-04-18T17:27:10.429Z,7.83
2023-04-18T17:29:38.549Z,7.30
2023-04-18T17:32:08.364Z,12.17
2023-04-18T17:34:36.484Z,7.10
2023-04-18T17:37:05.365Z,10.37
2023-04-18T17:39:33.428Z,7.40
2023-04-18T17:42:02.103Z,7.53
2023-04-18T17:44:30.955Z,7.70
2023-04-18T17:46:59.902Z,7.07
2023-04-18T17:49:34.450Z,7.30
2023-04-18T17:52:03.546Z,7.83
2023-04-18T17:54:31.937Z,7.57
2023-04-18T17:57:01.840Z,7.97
2023-04-18T17:59:30.245Z,11.63
2023-04-18T18:02:01.789Z,7.43
2023-04-18T18:04:31.646Z,8.83
2023-04-18T18:07:00.141Z,8.17
2023-04-18T18:09:28.664Z,7.77
2023-04-18T18:11:56.913Z,7.63
2023-04-18T18:14:25.082Z,7.20
2023-04-18T18:16:53.365Z,7.57
2023-04-18T18:19:21.569Z,7.57
2023-04-18T18:21:51.206Z,5.97
2023-04-18T18:24:20.104Z,6.87
2023-04-18T18:26:50.268Z,7.27
2023-04-18T18:29:19.913Z,6.73
2023-04-18T18:31:48.071Z,7.63
2023-04-18T18:34:16.851Z,9.07
2023-04-18T18:36:44.948Z,7.93
2023-04-18T18:39:16.610Z,8.23
2023-04-18T18:41:45.091Z,10.10
2023-04-18T18:44:13.875Z,8.70
2023-04-18T18:46:43.239Z,8.60
2023-04-18T18:49:11.624Z,7.03
2023-04-18T18:51:41.107Z,9.33
2023-04-18T18:54:09.160Z,9.17
2023-04-18T18:56:39.927Z,9.90
2023-04-18T18:59:08.077Z,6.97
2023-04-18T19:01:36.731Z,7.90
2023-04-18T19:04:05.254Z,7.27
2023-04-18T19:06:33.382Z,8.87
2023-04-18T19:09:01.486Z,10.20
2023-04-18T19:11:29.595Z,9.40
2023-04-18T19:13:59.007Z,7.33
2023-04-18T19:16:27.124Z,7.57
2023-04-18T19:18:55.187Z,8.27
2023-04-18T19:21:23.453Z,10.70
2023-04-18T19:23:51.553Z,9.77
2023-04-18T19:26:19.746Z,8.83
2023-04-18T19:28:47.896Z,9.90
2023-04-18T19:31:17.332Z,9.10
2023-04-18T19:33:46.024Z,8.93
2023-04-18T19:36:14.117Z,9.67
2023-04-18T19:38:42.626Z,8.33
2023-04-18T19:41:10.713Z,8.40
2023-04-18T19:43:40.704Z,8.70
2023-04-18T19:46:08.766Z,11.17
2023-04-18T19:48:38.162Z,8.40
2023-04-18T19:51:06.287Z,9.10
2023-04-18T19:53:35.814Z,9.90
2023-04-18T19:56:04.045Z,9.67
2023-04-18T19:58:39.808Z,10.10
2023-04-18T20:01:09.910Z,9.57
2023-04-18T20:03:39.972Z,9.73
2023-04-18T20:06:08.906Z,8.93
2023-04-18T20:08:41.718Z,10.17
2023-04-18T20:11:11.819Z,11.03
2023-04-18T20:13:40.227Z,9.70
2023-04-18T20:16:10.914Z,9.47
2023-04-18T20:18:42.286Z,10.47
2023-04-18T20:21:11.390Z,12.40
2023-04-18T20:23:41.760Z,10.07
2023-04-18T20:26:10.242Z,9.07
2023-04-18T20:28:38.611Z,9.13
2023-04-18T20:31:07.097Z,9.20
2023-04-18T20:33:37.828Z,8.53
2023-04-18T20:36:08.170Z,10.97
2023-04-18T20:38:36.836Z,10.10
2023-04-18T20:41:04.945Z,9.30
2023-04-18T20:43:36.512Z,10.03
2023-04-18T20:46:04.840Z,12.47
2023-04-18T20:48:32.876Z,12.23
2023-04-18T20:51:01.123Z,11.40
2023-04-18T20:53:30.574Z,12.60
2023-04-18T20:55:59.236Z,12.07
2023-04-18T20:58:27.352Z,9.07
2023-04-18T21:00:55.432Z,11.60
2023-04-18T21:03:23.885Z,11.03
2023-04-18T21:05:51.985Z,9.63
2023-04-18T21:08:20.264Z,11.03
2023-04-18T21:10:49.641Z,10.87
2023-04-18T21:13:17.780Z,9.17
2023-04-18T21:15:46.029Z,10.00
2023-04-18T21:18:14.319Z,11.20
2023-04-18T21:20:42.349Z,9.50
2023-04-18T21:23:10.413Z,12.97
2023-04-18T21:25:38.875Z,12.90
2023-04-18T21:28:08.824Z,11.30
2023-04-18T21:30:36.910Z,9.77
2023-04-18T21:33:05.189Z,11.40
2023-04-18T21:35:33.355Z,10.73
2023-04-18T21:38:01.389Z,11.30
2023-04-18T21:40:30.745Z,7.93
2023-04-18T21:42:58.825Z,11.77
2023-04-18T21:45:28.357Z,11.07
2023-04-18T21:47:56.460Z,10.67
2023-04-18T21:50:24.957Z,12.40
2023-04-18T21:52:53.057Z,13.23
2023-04-18T21:55:21.250Z,9.37
2023-04-18T21:57:49.350Z,13.33
2023-04-18T22:00:18.396Z,13.93
2023-04-18T22:02:48.053Z,10.90
2023-04-18T22:05:16.881Z,10.57
2023-04-18T22:07:56.803Z,8.63
2023-04-18T22:10:25.988Z,12.47
2023-04-18T22:12:54.442Z,10.50
2023-04-18T22:15:22.569Z,11.10
2023-04-18T22:17:52.057Z,12.97
2023-04-18T22:20:20.213Z,14.87
2023-04-18T22:22:48.437Z,10.13
2023-04-18T22:25:16.745Z,13.67
2023-04-18T22:27:46.449Z,10.43
2023-04-18T22:30:15.837Z,10.17
2023-04-18T22:33:10.028Z,12.13
2023-04-18T22:35:38.305Z,12.53
2023-04-18T22:38:06.432Z,10.30
2023-04-18T22:40:34.517Z,11.20
2023-04-18T22:43:02.596Z,9.57
2023-04-18T22:45:30.739Z,9.73
2023-04-18T22:47:58.847Z,10.87
2023-04-18T22:50:30.112Z,10.87
2023-04-18T22:52:58.197Z,9.67
2023-04-18T22:55:26.353Z,11.77
2023-04-18T22:57:54.391Z,8.60
2023-04-18T23:00:22.497Z,10.50
2023-04-18T23:02:51.743Z,10.13
2023-04-18T23:05:20.106Z,10.67
2023-04-18T23:07:49.515Z,11.07
2023-04-18T23:10:17.607Z,9.47
2023-04-18T23:12:45.670Z,11.60
2023-04-18T23:15:13.760Z,11.30
2023-04-18T23:17:41.907Z,8.70
2023-04-18T23:20:12.356Z,9.23
2023-04-18T23:22:41.388Z,11.20
2023-04-18T23:25:11.134Z,11.23
2023-04-18T23:27:39.255Z,8.67
2023-04-18T23:30:32.723Z,13.37
2023-04-18T23:33:00.790Z,10.77
2023-04-18T23:35:28.845Z,11.43
2023-04-18T23:37:58.778Z,9.63
2023-04-18T23:40:28.180Z,12.60
2023-04-18T23:42:56.290Z,10.70
2023-04-18T23:45:24.707Z,10.53
2023-04-18T23:47:53.090Z,12.93
2023-04-18T23:50:21.272Z,12.03
2023-04-18T23:52:49.282Z,13.70
2023-04-18T23:55:17.763Z,12.83
2023-04-18T23:57:47.119Z,11.50
